sensor_id;sensor_type;location;lat;lon;timestamp;P1;durP1;ratioP1;P2;durP2;ratioP2
21741;SDS011;11033;47.490;11.116;2023-09-19T00:02:11;3.95;;;3.75;;
21741;SDS011;11033;47.490;11.116;2023-09-19T00:04:37;4.43;;;4.13;;
21741;SDS011;11033;47.490;11.116;2023-09-19T00:07:04;3.97;;;3.63;;
21741;SDS011;11033;47.490;11.116;2023-09-19T00:09:29;4.40;;;4.10;;
21741;SDS011;11033;47.490;11.116;2023-09-19T00:11:55;4.10;;;3.73;;
21741;SDS011;11033;47.490;11.116;2023-09-19T00:14:20;3.80;;;3.50;;
21741;SDS011;11033;47.490;11.116;2023-09-19T00:16:45;3.72;;;3.53;;
21741;SDS011;11033;47.490;11.116;2023-09-19T00:19:14;4.28;;;3.88;;
21741;SDS011;11033;47.490;11.116;2023-09-19T00:21:41;4.05;;;3.78;;
21741;SDS011;11033;47.490;11.116;2023-09-19T00:24:06;5.95;;;3.78;;
21741;SDS011;11033;47.490;11.116;2023-09-19T00:26:33;4.70;;;4.00;;
21741;SDS011;11033;47.490;11.116;2023-09-19T00:28:59;7.28;;;4.25;;
21741;SDS011;11033;47.490;11.116;2023-09-19T00:31:33;3.88;;;3.67;;
21741;SDS011;11033;47.490;11.116;2023-09-19T00:33:58;7.30;;;3.80;;
21741;SDS011;11033;47.490;11.116;2023-09-19T00:36:25;4.10;;;3.80;;
21741;SDS011;11033;47.490;11.116;2023-09-19T00:38:50;5.70;;;3.78;;
21741;SDS011;11033;47.490;11.116;2023-09-19T00:41:15;4.33;;;4.03;;
21741;SDS011;11033;47.490;11.116;2023-09-19T00:43:40;5.07;;;3.90;;
21741;SDS011;11033;47.490;11.116;2023-09-19T00:46:05;5.50;;;4.00;;
21741;SDS011;11033;47.490;11.116;2023-09-19T00:48:31;4.13;;;3.75;;
21741;SDS011;11033;47.490;11.116;2023-09-19T00:50:58;4.30;;;4.00;;
21741;SDS011;11033;47.490;11.116;2023-09-19T00:53:27;5.78;;;4.10;;
21741;SDS011;11033;47.490;11.116;2023-09-19T00:55:52;4.63;;;4.20;;
21741;SDS011;11033;47.490;11.116;2023-09-19T00:58:18;4.03;;;3.73;;
21741;SDS011;11033;47.490;11.116;2023-09-19T01:00:43;3.83;;;3.63;;
21741;SDS011;11033;47.490;11.116;2023-09-19T01:03:09;6.10;;;3.50;;
21741;SDS011;11033;47.490;11.116;2023-09-19T01:05:35;4.15;;;3.85;;
21741;SDS011;11033;47.490;11.116;2023-09-19T01:08:00;7.00;;;3.83;;
21741;SDS011;11033;47.490;11.116;2023-09-19T01:10:26;6.47;;;3.72;;
21741;SDS011;11033;47.490;11.116;2023-09-19T01:12:55;4.40;;;3.70;;
21741;SDS011;11033;47.490;11.116;2023-09-19T01:18:00;5.17;;;3.77;;
21741;SDS011;11033;47.490;11.116;2023-09-19T01:20:32;4.88;;;3.95;;
21741;SDS011;11033;47.490;11.116;2023-09-19T01:25:42;4.15;;;3.90;;
21741;SDS011;11033;47.490;11.116;2023-09-19T01:28:20;4.03;;;3.75;;
21741;SDS011;11033;47.490;11.116;2023-09-19T01:30:51;4.35;;;4.05;;
21741;SDS011;11033;47.490;11.116;2023-09-19T01:33:19;6.13;;;4.20;;
21741;SDS011;11033;47.490;11.116;2023-09-19T01:35:44;4.20;;;3.85;;
21741;SDS011;11033;47.490;11.116;2023-09-19T01:38:10;6.55;;;4.38;;
21741;SDS011;11033;47.490;11.116;2023-09-19T01:40:43;4.55;;;4.20;;
21741;SDS011;11033;47.490;11.116;2023-09-19T01:43:12;4.50;;;4.20;;
21741;SDS011;11033;47.490;11.116;2023-09-19T01:45:50;4.38;;;4.07;;
21741;SDS011;11033;47.490;11.116;2023-09-19T01:48:25;6.15;;;3.85;;
21741;SDS011;11033;47.490;11.116;2023-09-19T01:51:02;4.60;;;4.20;;
21741;SDS011;11033;47.490;11.116;2023-09-19T01:56:07;4.47;;;3.75;;
21741;SDS011;11033;47.490;11.116;2023-09-19T01:58:38;4.53;;;4.18;;
21741;SDS011;11033;47.490;11.116;2023-09-19T02:01:04;6.22;;;3.70;;
21741;SDS011;11033;47.490;11.116;2023-09-19T02:03:31;4.30;;;3.90;;
21741;SDS011;11033;47.490;11.116;2023-09-19T02:05:56;4.17;;;3.87;;
21741;SDS011;11033;47.490;11.116;2023-09-19T02:08:21;6.17;;;3.90;;
21741;SDS011;11033;47.490;11.116;2023-09-19T02:10:49;4.40;;;4.00;;
21741;SDS011;11033;47.490;11.116;2023-09-19T02:13:15;4.28;;;3.97;;
21741;SDS011;11033;47.490;11.116;2023-09-19T02:15:42;4.50;;;3.92;;
21741;SDS011;11033;47.490;11.116;2023-09-19T02:18:09;4.03;;;3.83;;
21741;SDS011;11033;47.490;11.116;2023-09-19T02:20:34;4.95;;;3.80;;
21741;SDS011;11033;47.490;11.116;2023-09-19T02:22:59;4.13;;;3.90;;
21741;SDS011;11033;47.490;11.116;2023-09-19T02:25:24;6.47;;;3.73;;
21741;SDS011;11033;47.490;11.116;2023-09-19T02:27:51;4.22;;;3.83;;
21741;SDS011;11033;47.490;11.116;2023-09-19T02:30:19;4.55;;;4.15;;
21741;SDS011;11033;47.490;11.116;2023-09-19T02:32:45;4.72;;;4.03;;
21741;SDS011;11033;47.490;11.116;2023-09-19T02:35:11;4.93;;;4.45;;
21741;SDS011;11033;47.490;11.116;2023-09-19T02:37:36;5.13;;;3.90;;
21741;SDS011;11033;47.490;11.116;2023-09-19T02:40:01;4.37;;;4.03;;
21741;SDS011;11033;47.490;11.116;2023-09-19T02:42:27;4.28;;;3.63;;
21741;SDS011;11033;47.490;11.116;2023-09-19T02:44:52;3.93;;;3.53;;
21741;SDS011;11033;47.490;11.116;2023-09-19T02:47:17;5.50;;;3.90;;
21741;SDS011;11033;47.490;11.116;2023-09-19T02:49:44;4.38;;;3.97;;
21741;SDS011;11033;47.490;11.116;2023-09-19T02:52:09;5.17;;;3.93;;
21741;SDS011;11033;47.490;11.116;2023-09-19T02:54:36;5.35;;;4.85;;
21741;SDS011;11033;47.490;11.116;2023-09-19T02:57:01;4.20;;;3.90;;
21741;SDS011;11033;47.490;11.116;2023-09-19T02:59:28;7.22;;;3.92;;
21741;SDS011;11033;47.490;11.116;2023-09-19T03:01:54;4.20;;;3.90;;
21741;SDS011;11033;47.490;11.116;2023-09-19T03:04:19;4.27;;;3.87;;
21741;SDS011;11033;47.490;11.116;2023-09-19T03:06:45;4.50;;;4.20;;
21741;SDS011;11033;47.490;11.116;2023-09-19T03:09:10;4.47;;;4.18;;
21741;SDS011;11033;47.490;11.116;2023-09-19T03:11:36;4.70;;;4.18;;
21741;SDS011;11033;47.490;11.116;2023-09-19T03:14:01;5.68;;;4.22;;
21741;SDS011;11033;47.490;11.116;2023-09-19T03:16:27;6.70;;;3.78;;
21741;SDS011;11033;47.490;11.116;2023-09-19T03:18:52;5.17;;;4.60;;
21741;SDS011;11033;47.490;11.116;2023-09-19T03:21:17;3.90;;;3.70;;
21741;SDS011;11033;47.490;11.116;2023-09-19T03:23:44;6.78;;;4.00;;
21741;SDS011;11033;47.490;11.116;2023-09-19T03:26:12;5.55;;;3.72;;
21741;SDS011;11033;47.490;11.116;2023-09-19T03:28:38;5.50;;;3.75;;
21741;SDS011;11033;47.490;11.116;2023-09-19T03:31:03;4.37;;;3.97;;
21741;SDS011;11033;47.490;11.116;2023-09-19T03:33:29;4.22;;;3.92;;
21741;SDS011;11033;47.490;11.116;2023-09-19T03:35:57;4.30;;;3.90;;
21741;SDS011;11033;47.490;11.116;2023-09-19T03:38:23;4.50;;;4.10;;
21741;SDS011;11033;47.490;11.116;2023-09-19T03:40:48;6.47;;;4.60;;
21741;SDS011;11033;47.490;11.116;2023-09-19T03:43:14;4.40;;;4.00;;
21741;SDS011;11033;47.490;11.116;2023-09-19T03:45:39;4.13;;;3.83;;
21741;SDS011;11033;47.490;11.116;2023-09-19T03:48:11;4.97;;;4.10;;
21741;SDS011;11033;47.490;11.116;2023-09-19T03:50:36;12.02;;;4.40;;
21741;SDS011;11033;47.490;11.116;2023-09-19T03:53:01;4.03;;;3.77;;
21741;SDS011;11033;47.490;11.116;2023-09-19T03:55:27;5.32;;;4.20;;
21741;SDS011;11033;47.490;11.116;2023-09-19T03:57:52;4.03;;;3.77;;
21741;SDS011;11033;47.490;11.116;2023-09-19T04:00:17;3.90;;;3.67;;
21741;SDS011;11033;47.490;11.116;2023-09-19T04:02:46;5.60;;;4.63;;
21741;SDS011;11033;47.490;11.116;2023-09-19T04:05:11;4.00;;;3.57;;
21741;SDS011;11033;47.490;11.116;2023-09-19T04:07:36;4.93;;;4.50;;
21741;SDS011;11033;47.490;11.116;2023-09-19T04:10:02;4.60;;;4.30;;
21741;SDS011;11033;47.490;11.116;2023-09-19T04:12:27;6.28;;;3.88;;
21741;SDS011;11033;47.490;11.116;2023-09-19T04:14:53;3.83;;;3.63;;
21741;SDS011;11033;47.490;11.116;2023-09-19T04:17:18;9.03;;;4.27;;
21741;SDS011;11033;47.490;11.116;2023-09-19T04:19:43;4.35;;;3.80;;
21741;SDS011;11033;47.490;11.116;2023-09-19T04:22:10;4.47;;;4.18;;
21741;SDS011;11033;47.490;11.116;2023-09-19T04:24:36;5.45;;;4.75;;
21741;SDS011;11033;47.490;11.116;2023-09-19T04:27:03;4.38;;;4.10;;
21741;SDS011;11033;47.490;11.116;2023-09-19T04:29:28;4.28;;;3.80;;
21741;SDS011;11033;47.490;11.116;2023-09-19T04:31:54;4.30;;;4.00;;
21741;SDS011;11033;47.490;11.116;2023-09-19T04:34:19;4.20;;;3.90;;
21741;SDS011;11033;47.490;11.116;2023-09-19T04:36:44;4.30;;;3.90;;
21741;SDS011;11033;47.490;11.116;2023-09-19T04:39:10;4.88;;;4.30;;
21741;SDS011;11033;47.490;11.116;2023-09-19T04:41:38;4.15;;;3.80;;
21741;SDS011;11033;47.490;11.116;2023-09-19T04:44:05;7.22;;;4.10;;
21741;SDS011;11033;47.490;11.116;2023-09-19T04:46:30;4.60;;;4.20;;
21741;SDS011;11033;47.490;11.116;2023-09-19T04:48:56;4.30;;;4.10;;
21741;SDS011;11033;47.490;11.116;2023-09-19T04:51:21;5.03;;;4.57;;
21741;SDS011;11033;47.490;11.116;2023-09-19T04:53:46;5.33;;;4.23;;
21741;SDS011;11033;47.490;11.116;2023-09-19T04:56:13;4.70;;;4.20;;
21741;SDS011;11033;47.490;11.116;2023-09-19T04:58:38;4.70;;;4.00;;
21741;SDS011;11033;47.490;11.116;2023-09-19T05:01:03;6.30;;;4.20;;
21741;SDS011;11033;47.490;11.116;2023-09-19T05:03:29;5.20;;;4.45;;
21741;SDS011;11033;47.490;11.116;2023-09-19T05:05:54;4.88;;;4.53;;
21741;SDS011;11033;47.490;11.116;2023-09-19T05:08:19;5.17;;;4.63;;
21741;SDS011;11033;47.490;11.116;2023-09-19T05:10:44;4.83;;;4.33;;
21741;SDS011;11033;47.490;11.116;2023-09-19T05:13:10;5.63;;;4.85;;
21741;SDS011;11033;47.490;11.116;2023-09-19T05:15:37;4.22;;;3.92;;
21741;SDS011;11033;47.490;11.116;2023-09-19T05:18:02;4.73;;;4.33;;
21741;SDS011;11033;47.490;11.116;2023-09-19T05:20:28;4.78;;;4.45;;
21741;SDS011;11033;47.490;11.116;2023-09-19T05:25:26;4.60;;;4.20;;
21741;SDS011;11033;47.490;11.116;2023-09-19T05:27:54;5.28;;;4.88;;
21741;SDS011;11033;47.490;11.116;2023-09-19T05:30:19;6.13;;;4.78;;
21741;SDS011;11033;47.490;11.116;2023-09-19T05:32:45;5.83;;;5.33;;
21741;SDS011;11033;47.490;11.116;2023-09-19T05:35:10;5.63;;;4.87;;
21741;SDS011;11033;47.490;11.116;2023-09-19T05:37:38;4.95;;;4.55;;
21741;SDS011;11033;47.490;11.116;2023-09-19T05:40:03;5.93;;;4.90;;
21741;SDS011;11033;47.490;11.116;2023-09-19T05:42:32;5.30;;;4.90;;
21741;SDS011;11033;47.490;11.116;2023-09-19T05:44:57;4.83;;;4.53;;
21741;SDS011;11033;47.490;11.116;2023-09-19T05:47:23;5.03;;;4.60;;
21741;SDS011;11033;47.490;11.116;2023-09-19T05:49:50;4.80;;;4.28;;
21741;SDS011;11033;47.490;11.116;2023-09-19T05:52:15;4.97;;;4.57;;
21741;SDS011;11033;47.490;11.116;2023-09-19T05:54:42;4.75;;;4.35;;
21741;SDS011;11033;47.490;11.116;2023-09-19T05:57:07;5.43;;;4.97;;
21741;SDS011;11033;47.490;11.116;2023-09-19T05:59:33;6.70;;;4.40;;
21741;SDS011;11033;47.490;11.116;2023-09-19T06:01:59;5.10;;;4.60;;
21741;SDS011;11033;47.490;11.116;2023-09-19T06:04:24;5.65;;;5.15;;
21741;SDS011;11033;47.490;11.116;2023-09-19T06:06:50;5.10;;;4.70;;
21741;SDS011;11033;47.490;11.116;2023-09-19T06:09:16;4.97;;;4.57;;
21741;SDS011;11033;47.490;11.116;2023-09-19T06:11:41;6.20;;;5.00;;
21741;SDS011;11033;47.490;11.116;2023-09-19T06:14:06;4.90;;;4.57;;
21741;SDS011;11033;47.490;11.116;2023-09-19T06:16:32;5.25;;;4.78;;
21741;SDS011;11033;47.490;11.116;2023-09-19T06:18:57;5.43;;;4.60;;
21741;SDS011;11033;47.490;11.116;2023-09-19T06:21:23;5.25;;;4.75;;
21741;SDS011;11033;47.490;11.116;2023-09-19T06:23:48;5.87;;;5.47;;
21741;SDS011;11033;47.490;11.116;2023-09-19T06:26:14;5.50;;;5.00;;
21741;SDS011;11033;47.490;11.116;2023-09-19T06:28:39;5.30;;;5.00;;
21741;SDS011;11033;47.490;11.116;2023-09-19T06:31:04;5.30;;;5.00;;
21741;SDS011;11033;47.490;11.116;2023-09-19T06:33:34;6.30;;;5.27;;
21741;SDS011;11033;47.490;11.116;2023-09-19T06:35:59;4.77;;;4.47;;
21741;SDS011;11033;47.490;11.116;2023-09-19T06:38:25;5.35;;;5.03;;
21741;SDS011;11033;47.490;11.116;2023-09-19T06:40:50;5.18;;;4.82;;
21741;SDS011;11033;47.490;11.116;2023-09-19T06:43:15;4.70;;;4.50;;
21741;SDS011;11033;47.490;11.116;2023-09-19T06:45:41;4.90;;;4.63;;
21741;SDS011;11033;47.490;11.116;2023-09-19T06:48:07;5.70;;;5.20;;
21741;SDS011;11033;47.490;11.116;2023-09-19T06:50:34;5.20;;;4.80;;
21741;SDS011;11033;47.490;11.116;2023-09-19T06:52:59;5.43;;;5.10;;
21741;SDS011;11033;47.490;11.116;2023-09-19T06:55:25;4.43;;;4.18;;
21741;SDS011;11033;47.490;11.116;2023-09-19T06:57:52;4.53;;;4.22;;
21741;SDS011;11033;47.490;11.116;2023-09-19T07:00:19;4.32;;;4.03;;
21741;SDS011;11033;47.490;11.116;2023-09-19T07:05:21;7.38;;;4.70;;
21741;SDS011;11033;47.490;11.116;2023-09-19T07:07:46;5.20;;;4.70;;
21741;SDS011;11033;47.490;11.116;2023-09-19T07:10:12;5.63;;;4.73;;
21741;SDS011;11033;47.490;11.116;2023-09-19T07:12:38;4.93;;;4.53;;
21741;SDS011;11033;47.490;11.116;2023-09-19T07:15:03;5.50;;;5.00;;
21741;SDS011;11033;47.490;11.116;2023-09-19T07:17:30;5.05;;;4.50;;
21741;SDS011;11033;47.490;11.116;2023-09-19T07:19:58;4.95;;;4.55;;
21741;SDS011;11033;47.490;11.116;2023-09-19T07:22:23;5.00;;;4.70;;
21741;SDS011;11033;47.490;11.116;2023-09-19T07:24:48;5.10;;;4.70;;
21741;SDS011;11033;47.490;11.116;2023-09-19T07:27:14;4.87;;;4.47;;
21741;SDS011;11033;47.490;11.116;2023-09-19T07:29:39;5.03;;;4.70;;
21741;SDS011;11033;47.490;11.116;2023-09-19T07:32:04;4.80;;;4.40;;
21741;SDS011;11033;47.490;11.116;2023-09-19T07:34:31;5.35;;;4.95;;
21741;SDS011;11033;47.490;11.116;2023-09-19T07:36:56;4.75;;;4.40;;
21741;SDS011;11033;47.490;11.116;2023-09-19T07:39:21;4.65;;;4.35;;
21741;SDS011;11033;47.490;11.116;2023-09-19T07:41:46;5.00;;;4.60;;
21741;SDS011;11033;47.490;11.116;2023-09-19T07:44:13;5.13;;;4.63;;
21741;SDS011;11033;47.490;11.116;2023-09-19T07:46:39;5.40;;;4.93;;
21741;SDS011;11033;47.490;11.116;2023-09-19T07:49:04;5.50;;;5.00;;
21741;SDS011;11033;47.490;11.116;2023-09-19T07:51:30;5.30;;;4.20;;
21741;SDS011;11033;47.490;11.116;2023-09-19T07:53:55;4.63;;;4.43;;
21741;SDS011;11033;47.490;11.116;2023-09-19T07:56:20;4.82;;;4.50;;
21741;SDS011;11033;47.490;11.116;2023-09-19T07:58:46;4.63;;;4.37;;
21741;SDS011;11033;47.490;11.116;2023-09-19T08:01:11;5.00;;;4.70;;
21741;SDS011;11033;47.490;11.116;2023-09-19T08:03:39;4.63;;;4.32;;
21741;SDS011;11033;47.490;11.116;2023-09-19T08:06:08;5.18;;;4.82;;
21741;SDS011;11033;47.490;11.116;2023-09-19T08:08:33;4.90;;;4.60;;
21741;SDS011;11033;47.490;11.116;2023-09-19T08:11:02;5.03;;;4.70;;
21741;SDS011;11033;47.490;11.116;2023-09-19T08:13:27;4.95;;;4.70;;
21741;SDS011;11033;47.490;11.116;2023-09-19T08:15:52;6.20;;;5.60;;
21741;SDS011;11033;47.490;11.116;2023-09-19T08:18:18;6.30;;;5.70;;
21741;SDS011;11033;47.490;11.116;2023-09-19T08:20:48;6.55;;;5.90;;
21741;SDS011;11033;47.490;11.116;2023-09-19T08:23:14;5.95;;;5.65;;
21741;SDS011;11033;47.490;11.116;2023-09-19T08:25:39;6.83;;;6.33;;
21741;SDS011;11033;47.490;11.116;2023-09-19T08:28:04;6.60;;;6.15;;
21741;SDS011;11033;47.490;11.116;2023-09-19T08:30:33;6.28;;;5.88;;
21741;SDS011;11033;47.490;11.116;2023-09-19T08:32:59;6.32;;;5.93;;
21741;SDS011;11033;47.490;11.116;2023-09-19T08:35:25;6.35;;;5.95;;
21741;SDS011;11033;47.490;11.116;2023-09-19T08:37:50;6.43;;;5.93;;
21741;SDS011;11033;47.490;11.116;2023-09-19T08:40:16;6.22;;;5.90;;
21741;SDS011;11033;47.490;11.116;2023-09-19T08:42:55;6.68;;;6.32;;
21741;SDS011;11033;47.490;11.116;2023-09-19T08:45:20;6.75;;;6.13;;
21741;SDS011;11033;47.490;11.116;2023-09-19T08:50:21;7.05;;;6.55;;
21741;SDS011;11033;47.490;11.116;2023-09-19T08:52:48;6.72;;;6.40;;
21741;SDS011;11033;47.490;11.116;2023-09-19T08:55:16;6.90;;;6.50;;
21741;SDS011;11033;47.490;11.116;2023-09-19T08:57:46;6.82;;;6.43;;
21741;SDS011;11033;47.490;11.116;2023-09-19T09:00:14;6.70;;;6.30;;
21741;SDS011;11033;47.490;11.116;2023-09-19T09:02:42;6.38;;;6.07;;
21741;SDS011;11033;47.490;11.116;2023-09-19T09:05:08;6.07;;;5.78;;
21741;SDS011;11033;47.490;11.116;2023-09-19T09:07:34;6.63;;;6.22;;
21741;SDS011;11033;47.490;11.116;2023-09-19T09:10:00;7.22;;;6.82;;
21741;SDS011;11033;47.490;11.116;2023-09-19T09:12:27;7.57;;;7.07;;
21741;SDS011;11033;47.490;11.116;2023-09-19T09:14:52;7.67;;;7.27;;
21741;SDS011;11033;47.490;11.116;2023-09-19T09:17:17;7.45;;;6.85;;
21741;SDS011;11033;47.490;11.116;2023-09-19T09:19:45;8.07;;;7.57;;
21741;SDS011;11033;47.490;11.116;2023-09-19T09:22:10;8.17;;;7.53;;
21741;SDS011;11033;47.490;11.116;2023-09-19T09:24:36;8.55;;;7.97;;
21741;SDS011;11033;47.490;11.116;2023-09-19T09:27:06;8.07;;;7.47;;
21741;SDS011;11033;47.490;11.116;2023-09-19T09:32:22;7.65;;;7.18;;
21741;SDS011;11033;47.490;11.116;2023-09-19T09:34:49;7.18;;;6.85;;
21741;SDS011;11033;47.490;11.116;2023-09-19T09:37:14;8.38;;;7.90;;
21741;SDS011;11033;47.490;11.116;2023-09-19T09:39:40;7.20;;;6.82;;
21741;SDS011;11033;47.490;11.116;2023-09-19T09:42:23;7.82;;;7.38;;
21741;SDS011;11033;47.490;11.116;2023-09-19T09:45:12;8.18;;;7.57;;
21741;SDS011;11033;47.490;11.116;2023-09-19T09:47:41;7.55;;;7.15;;
21741;SDS011;11033;47.490;11.116;2023-09-19T09:50:06;7.80;;;7.40;;
21741;SDS011;11033;47.490;11.116;2023-09-19T09:52:43;8.85;;;8.15;;
21741;SDS011;11033;47.490;11.116;2023-09-19T09:55:09;7.22;;;6.72;;
21741;SDS011;11033;47.490;11.116;2023-09-19T09:57:34;7.22;;;6.82;;
21741;SDS011;11033;47.490;11.116;2023-09-19T10:00:00;7.97;;;7.45;;
21741;SDS011;11033;47.490;11.116;2023-09-19T10:02:41;7.60;;;7.20;;
21741;SDS011;11033;47.490;11.116;2023-09-19T10:05:13;7.38;;;6.97;;
21741;SDS011;11033;47.490;11.116;2023-09-19T10:07:46;7.65;;;7.22;;
21741;SDS011;11033;47.490;11.116;2023-09-19T10:10:37;7.47;;;6.95;;
21741;SDS011;11033;47.490;11.116;2023-09-19T10:13:07;8.00;;;7.60;;
21741;SDS011;11033;47.490;11.116;2023-09-19T10:15:37;7.43;;;7.05;;
21741;SDS011;11033;47.490;11.116;2023-09-19T10:18:05;6.88;;;6.40;;
21741;SDS011;11033;47.490;11.116;2023-09-19T10:20:33;7.15;;;6.75;;
21741;SDS011;11033;47.490;11.116;2023-09-19T10:23:00;7.43;;;7.05;;
21741;SDS011;11033;47.490;11.116;2023-09-19T10:25:28;6.90;;;6.47;;
21741;SDS011;11033;47.490;11.116;2023-09-19T10:27:54;6.75;;;6.45;;
21741;SDS011;11033;47.490;11.116;2023-09-19T10:30:20;7.40;;;7.07;;
21741;SDS011;11033;47.490;11.116;2023-09-19T10:32:47;7.38;;;6.88;;
21741;SDS011;11033;47.490;11.116;2023-09-19T10:35:16;7.25;;;6.72;;
21741;SDS011;11033;47.490;11.116;2023-09-19T10:37:42;7.10;;;6.80;;
21741;SDS011;11033;47.490;11.116;2023-09-19T10:40:09;7.00;;;6.70;;
21741;SDS011;11033;47.490;11.116;2023-09-19T10:42:37;7.40;;;7.03;;
21741;SDS011;11033;47.490;11.116;2023-09-19T10:45:03;7.75;;;7.35;;
21741;SDS011;11033;47.490;11.116;2023-09-19T10:47:32;8.15;;;7.75;;
21741;SDS011;11033;47.490;11.116;2023-09-19T10:49:57;8.07;;;7.43;;
21741;SDS011;11033;47.490;11.116;2023-09-19T10:52:23;7.40;;;7.10;;
21741;SDS011;11033;47.490;11.116;2023-09-19T10:54:50;8.68;;;8.27;;
21741;SDS011;11033;47.490;11.116;2023-09-19T10:57:20;8.10;;;7.80;;
21741;SDS011;11033;47.490;11.116;2023-09-19T11:02:17;8.57;;;8.13;;
21741;SDS011;11033;47.490;11.116;2023-09-19T11:04:42;8.02;;;7.72;;
21741;SDS011;11033;47.490;11.116;2023-09-19T11:07:10;8.63;;;8.13;;
21741;SDS011;11033;47.490;11.116;2023-09-19T11:09:45;8.18;;;7.88;;
21741;SDS011;11033;47.490;11.116;2023-09-19T11:14:54;9.65;;;9.15;;
21741;SDS011;11033;47.490;11.116;2023-09-19T11:30:30;8.18;;;7.80;;
21741;SDS011;11033;47.490;11.116;2023-09-19T11:36:04;7.55;;;7.15;;
21741;SDS011;11033;47.490;11.116;2023-09-19T11:43:49;9.00;;;8.60;;
21741;SDS011;11033;47.490;11.116;2023-09-19T11:46:15;8.98;;;8.57;;
21741;SDS011;11033;47.490;11.116;2023-09-19T11:48:41;9.45;;;9.00;;
21741;SDS011;11033;47.490;11.116;2023-09-19T11:51:12;8.88;;;8.57;;
21741;SDS011;11033;47.490;11.116;2023-09-19T11:53:44;8.68;;;8.27;;
21741;SDS011;11033;47.490;11.116;2023-09-19T11:56:10;8.32;;;7.85;;
21741;SDS011;11033;47.490;11.116;2023-09-19T11:58:35;8.60;;;8.20;;
21741;SDS011;11033;47.490;11.116;2023-09-19T12:01:02;8.40;;;7.90;;
21741;SDS011;11033;47.490;11.116;2023-09-19T12:03:33;8.20;;;7.90;;
21741;SDS011;11033;47.490;11.116;2023-09-19T12:05:59;8.40;;;8.10;;
21741;SDS011;11033;47.490;11.116;2023-09-19T12:08:27;8.57;;;8.27;;
21741;SDS011;11033;47.490;11.116;2023-09-19T12:10:52;8.35;;;8.05;;
21741;SDS011;11033;47.490;11.116;2023-09-19T12:13:18;7.50;;;7.20;;
21741;SDS011;11033;47.490;11.116;2023-09-19T12:15:43;6.95;;;6.65;;
21741;SDS011;11033;47.490;11.116;2023-09-19T12:18:10;7.00;;;6.70;;
21741;SDS011;11033;47.490;11.116;2023-09-19T12:20:45;6.93;;;6.63;;
21741;SDS011;11033;47.490;11.116;2023-09-19T12:23:14;7.25;;;6.85;;
21741;SDS011;11033;47.490;11.116;2023-09-19T12:25:43;7.18;;;6.85;;
21741;SDS011;11033;47.490;11.116;2023-09-19T12:28:13;6.85;;;6.55;;
21741;SDS011;11033;47.490;11.116;2023-09-19T12:30:38;6.85;;;6.55;;
21741;SDS011;11033;47.490;11.116;2023-09-19T12:33:04;6.97;;;6.68;;
21741;SDS011;11033;47.490;11.116;2023-09-19T12:35:29;6.90;;;6.60;;
21741;SDS011;11033;47.490;11.116;2023-09-19T12:38:01;7.25;;;6.95;;
21741;SDS011;11033;47.490;11.116;2023-09-19T12:40:28;6.82;;;6.53;;
21741;SDS011;11033;47.490;11.116;2023-09-19T12:42:54;6.88;;;6.57;;
21741;SDS011;11033;47.490;11.116;2023-09-19T12:45:27;7.20;;;6.80;;
21741;SDS011;11033;47.490;11.116;2023-09-19T12:50:36;7.55;;;7.25;;
21741;SDS011;11033;47.490;11.116;2023-09-19T12:53:25;8.40;;;7.75;;
21741;SDS011;11033;47.490;11.116;2023-09-19T12:55:57;7.90;;;7.40;;
21741;SDS011;11033;47.490;11.116;2023-09-19T12:58:23;8.35;;;7.88;;
21741;SDS011;11033;47.490;11.116;2023-09-19T13:00:48;10.17;;;9.77;;
21741;SDS011;11033;47.490;11.116;2023-09-19T13:05:46;8.38;;;8.07;;
21741;SDS011;11033;47.490;11.116;2023-09-19T13:08:21;8.70;;;8.30;;
21741;SDS011;11033;47.490;11.116;2023-09-19T13:10:59;9.50;;;9.10;;
21741;SDS011;11033;47.490;11.116;2023-09-19T13:13:25;10.73;;;10.23;;
21741;SDS011;11033;47.490;11.116;2023-09-19T13:15:53;8.70;;;8.30;;
21741;SDS011;11033;47.490;11.116;2023-09-19T13:18:19;9.13;;;8.82;;
21741;SDS011;11033;47.490;11.116;2023-09-19T13:21:04;7.35;;;7.05;;
21741;SDS011;11033;47.490;11.116;2023-09-19T13:23:30;6.82;;;6.60;;
21741;SDS011;11033;47.490;11.116;2023-09-19T13:25:55;7.18;;;6.88;;
21741;SDS011;11033;47.490;11.116;2023-09-19T13:28:21;7.18;;;6.88;;
21741;SDS011;11033;47.490;11.116;2023-09-19T13:30:46;8.05;;;7.65;;
21741;SDS011;11033;47.490;11.116;2023-09-19T13:33:13;9.32;;;8.93;;
21741;SDS011;11033;47.490;11.116;2023-09-19T13:35:44;7.78;;;7.43;;
21741;SDS011;11033;47.490;11.116;2023-09-19T13:38:09;7.77;;;7.20;;
21741;SDS011;11033;47.490;11.116;2023-09-19T13:40:36;6.82;;;6.57;;
21741;SDS011;11033;47.490;11.116;2023-09-19T13:43:01;7.30;;;7.00;;
21741;SDS011;11033;47.490;11.116;2023-09-19T13:45:27;7.60;;;7.20;;
21741;SDS011;11033;47.490;11.116;2023-09-19T13:47:55;7.78;;;7.38;;
21741;SDS011;11033;47.490;11.116;2023-09-19T13:50:21;9.52;;;9.13;;
21741;SDS011;11033;47.490;11.116;2023-09-19T13:52:49;7.93;;;7.53;;
21741;SDS011;11033;47.490;11.116;2023-09-19T13:55:16;9.20;;;8.80;;
21741;SDS011;11033;47.490;11.116;2023-09-19T13:57:45;6.80;;;6.60;;
21741;SDS011;11033;47.490;11.116;2023-09-19T14:00:10;6.87;;;6.57;;
21741;SDS011;11033;47.490;11.116;2023-09-19T14:02:35;7.13;;;6.82;;
21741;SDS011;11033;47.490;11.116;2023-09-19T14:05:00;7.50;;;7.20;;
21741;SDS011;11033;47.490;11.116;2023-09-19T14:07:26;6.70;;;6.15;;
21741;SDS011;11033;47.490;11.116;2023-09-19T14:09:51;6.83;;;6.53;;
21741;SDS011;11033;47.490;11.116;2023-09-19T14:12:17;10.80;;;10.40;;
21741;SDS011;11033;47.490;11.116;2023-09-19T14:14:43;10.97;;;10.57;;
21741;SDS011;11033;47.490;11.116;2023-09-19T14:17:10;10.00;;;9.60;;
21741;SDS011;11033;47.490;11.116;2023-09-19T14:19:35;9.60;;;9.20;;
21741;SDS011;11033;47.490;11.116;2023-09-19T14:22:01;10.93;;;10.52;;
21741;SDS011;11033;47.490;11.116;2023-09-19T14:24:32;10.70;;;10.30;;
21741;SDS011;11033;47.490;11.116;2023-09-19T14:26:57;10.23;;;9.82;;
21741;SDS011;11033;47.490;11.116;2023-09-19T14:29:24;13.52;;;12.93;;
21741;SDS011;11033;47.490;11.116;2023-09-19T14:31:49;13.68;;;13.10;;
21741;SDS011;11033;47.490;11.116;2023-09-19T14:34:16;6.90;;;6.60;;
21741;SDS011;11033;47.490;11.116;2023-09-19T14:36:42;9.27;;;8.77;;
21741;SDS011;11033;47.490;11.116;2023-09-19T14:39:07;8.77;;;8.47;;
21741;SDS011;11033;47.490;11.116;2023-09-19T14:41:33;10.02;;;9.63;;
21741;SDS011;11033;47.490;11.116;2023-09-19T14:43:58;11.03;;;10.63;;
21741;SDS011;11033;47.490;11.116;2023-09-19T14:46:23;13.00;;;12.50;;
21741;SDS011;11033;47.490;11.116;2023-09-19T14:48:51;10.18;;;9.77;;
21741;SDS011;11033;47.490;11.116;2023-09-19T14:51:17;9.65;;;9.25;;
21741;SDS011;11033;47.490;11.116;2023-09-19T14:53:44;10.10;;;9.60;;
21741;SDS011;11033;47.490;11.116;2023-09-19T14:56:09;9.70;;;9.30;;
21741;SDS011;11033;47.490;11.116;2023-09-19T14:58:34;9.23;;;8.82;;
21741;SDS011;11033;47.490;11.116;2023-09-19T15:01:07;9.07;;;8.63;;
21741;SDS011;11033;47.490;11.116;2023-09-19T15:03:33;9.20;;;8.80;;
21741;SDS011;11033;47.490;11.116;2023-09-19T15:06:00;9.15;;;8.75;;
21741;SDS011;11033;47.490;11.116;2023-09-19T15:08:25;8.75;;;8.45;;
21741;SDS011;11033;47.490;11.116;2023-09-19T15:10:50;8.23;;;7.83;;
21741;SDS011;11033;47.490;11.116;2023-09-19T15:13:19;8.05;;;7.75;;
21741;SDS011;11033;47.490;11.116;2023-09-19T15:15:44;8.52;;;8.23;;
21741;SDS011;11033;47.490;11.116;2023-09-19T15:18:12;7.90;;;7.57;;
21741;SDS011;11033;47.490;11.116;2023-09-19T15:20:42;6.87;;;6.57;;
21741;SDS011;11033;47.490;11.116;2023-09-19T15:23:07;7.57;;;7.28;;